sensor_id;sensor_type;location;lat;lon;timestamp;pressure;altitude;pressure_sealevel;temperature;humidity
69187;BME280;56301;56.864;60.554;2024-03-07T00:02:17;98555.81;;;25.35;23.02
69187;BME280;56301;56.864;60.554;2024-03-07T00:04:39;98558.69;;;25.33;22.86
69187;BME280;56301;56.864;60.554;2024-03-07T00:07:02;98554.94;;;25.34;23.80
69187;BME280;56301;56.864;60.554;2024-03-07T00:09:25;98559.75;;;25.32;23.74
69187;BME280;56301;56.864;60.554;2024-03-07T00:11:47;98558.69;;;25.33;23.12
69187;BME280;56301;56.864;60.554;2024-03-07T00:14:10;98570.00;;;25.37;23.87
69187;BME280;56301;56.864;60.554;2024-03-07T00:16:33;98568.31;;;25.36;24.63
69187;BME280;56301;56.864;60.554;2024-03-07T00:18:55;98559.34;;;25.35;24.47
69187;BME280;56301;56.864;60.554;2024-03-07T00:21:18;98566.25;;;25.38;24.45
69187;BME280;56301;56.864;60.554;2024-03-07T00:23:40;98563.44;;;25.46;23.62
69187;BME280;56301;56.864;60.554;2024-03-07T00:26:02;98570.00;;;25.58;24.73
69187;BME280;56301;56.864;60.554;2024-03-07T00:28:25;98577.00;;;25.74;23.76
69187;BME280;56301;56.864;60.554;2024-03-07T00:30:47;98567.53;;;25.85;23.88
69187;BME280;56301;56.864;60.554;2024-03-07T00:33:10;98569.31;;;25.99;23.73
69187;BME280;56301;56.864;60.554;2024-03-07T00:35:32;98564.41;;;26.09;23.47
69187;BME280;56301;56.864;60.554;2024-03-07T00:37:55;98561.97;;;26.21;22.72
69187;BME280;56301;56.864;60.554;2024-03-07T00:40:18;98560.81;;;26.30;23.88
69187;BME280;56301;56.864;60.554;2024-03-07T00:42:41;98567.09;;;26.37;22.62
69187;BME280;56301;56.864;60.554;2024-03-07T00:45:04;98564.63;;;26.42;23.18
69187;BME280;56301;56.864;60.554;2024-03-07T00:47:26;98566.31;;;26.44;22.90
69187;BME280;56301;56.864;60.554;2024-03-07T00:49:51;98566.72;;;26.40;23.39
69187;BME280;56301;56.864;60.554;2024-03-07T00:52:14;98564.56;;;26.36;22.64
69187;BME280;56301;56.864;60.554;2024-03-07T00:54:36;98563.69;;;26.29;23.31
69187;BME280;56301;56.864;60.554;2024-03-07T00:56:59;98556.38;;;26.23;22.79
69187;BME280;56301;56.864;60.554;2024-03-07T00:59:21;98557.38;;;26.15;22.73
69187;BME280;56301;56.864;60.554;2024-03-07T01:01:44;98561.69;;;26.09;23.42
69187;BME280;56301;56.864;60.554;2024-03-07T01:04:07;98558.94;;;26.03;23.33
69187;BME280;56301;56.864;60.554;2024-03-07T01:06:29;98564.28;;;25.96;23.56
69187;BME280;56301;56.864;60.554;2024-03-07T01:08:52;98561.59;;;25.96;23.82
69187;BME280;56301;56.864;60.554;2024-03-07T01:11:14;98560.44;;;25.84;23.33
69187;BME280;56301;56.864;60.554;2024-03-07T01:13:36;98568.50;;;25.99;24.77
69187;BME280;56301;56.864;60.554;2024-03-07T01:15:59;98568.16;;;26.08;25.81
69187;BME280;56301;56.864;60.554;2024-03-07T01:18:21;98566.50;;;26.14;23.49
69187;BME280;56301;56.864;60.554;2024-03-07T01:20:44;98570.59;;;26.03;23.67
69187;BME280;56301;56.864;60.554;2024-03-07T01:23:06;98573.84;;;25.92;23.63
69187;BME280;56301;56.864;60.554;2024-03-07T01:25:29;98566.72;;;25.84;23.52
69187;BME280;56301;56.864;60.554;2024-03-07T01:27:51;98563.75;;;25.79;23.88
69187;BME280;56301;56.864;60.554;2024-03-07T01:30:14;98556.06;;;25.83;23.69
69187;BME280;56301;56.864;60.554;2024-03-07T01:32:36;98557.97;;;25.89;23.86
69187;BME280;56301;56.864;60.554;2024-03-07T01:34:59;98562.78;;;25.87;23.85
69187;BME280;56301;56.864;60.554;2024-03-07T01:37:21;98558.41;;;25.86;23.78
69187;BME280;56301;56.864;60.554;2024-03-07T01:39:44;98557.75;;;25.84;24.80
69187;BME280;56301;56.864;60.554;2024-03-07T01:42:06;98550.84;;;25.81;23.90
69187;BME280;56301;56.864;60.554;2024-03-07T01:44:28;98564.78;;;25.78;23.95
69187;BME280;56301;56.864;60.554;2024-03-07T01:46:51;98557.84;;;25.76;22.98
69187;BME280;56301;56.864;60.554;2024-03-07T01:49:13;98557.03;;;25.75;23.29
69187;BME280;56301;56.864;60.554;2024-03-07T01:51:36;98559.72;;;25.75;23.05
69187;BME280;56301;56.864;60.554;2024-03-07T01:53:59;98559.81;;;25.82;22.84
69187;BME280;56301;56.864;60.554;2024-03-07T01:56:22;98554.78;;;25.79;22.79
69187;BME280;56301;56.864;60.554;2024-03-07T01:58:46;98549.16;;;25.80;24.37
69187;BME280;56301;56.864;60.554;2024-03-07T02:01:09;98555.16;;;25.76;23.85
69187;BME280;56301;56.864;60.554;2024-03-07T02:03:31;98560.34;;;25.77;23.58
69187;BME280;56301;56.864;60.554;2024-03-07T02:05:54;98565.44;;;25.80;23.35
69187;BME280;56301;56.864;60.554;2024-03-07T02:08:16;98563.28;;;25.76;23.66
69187;BME280;56301;56.864;60.554;2024-03-07T02:10:39;98565.72;;;25.70;23.87
69187;BME280;56301;56.864;60.554;2024-03-07T02:13:01;98559.66;;;25.68;23.34
69187;BME280;56301;56.864;60.554;2024-03-07T02:15:23;98563.81;;;25.64;23.49
69187;BME280;56301;56.864;60.554;2024-03-07T02:17:46;98554.69;;;25.72;23.00
69187;BME280;56301;56.864;60.554;2024-03-07T02:20:08;98559.28;;;25.72;23.67
69187;BME280;56301;56.864;60.554;2024-03-07T02:22:31;98555.53;;;25.73;23.28
69187;BME280;56301;56.864;60.554;2024-03-07T02:24:53;98557.59;;;25.70;22.84
69187;BME280;56301;56.864;60.554;2024-03-07T02:27:16;98551.16;;;25.72;23.05
69187;BME280;56301;56.864;60.554;2024-03-07T02:29:38;98559.00;;;25.66;23.53
69187;BME280;56301;56.864;60.554;2024-03-07T02:32:01;98561.94;;;25.65;23.44
69187;BME280;56301;56.864;60.554;2024-03-07T02:34:23;98559.41;;;25.63;23.01
69187;BME280;56301;56.864;60.554;2024-03-07T02:36:45;98555.69;;;25.64;22.56
69187;BME280;56301;56.864;60.554;2024-03-07T02:39:08;98565.47;;;25.65;22.35
69187;BME280;56301;56.864;60.554;2024-03-07T02:41:31;98562.97;;;25.64;22.50
69187;BME280;56301;56.864;60.554;2024-03-07T02:43:53;98571.56;;;25.67;22.31
69187;BME280;56301;56.864;60.554;2024-03-07T02:46:16;98560.25;;;25.64;21.92
69187;BME280;56301;56.864;60.554;2024-03-07T02:48:38;98561.28;;;25.63;22.44
69187;BME280;56301;56.864;60.554;2024-03-07T02:51:01;98562.09;;;25.63;22.01
69187;BME280;56301;56.864;60.554;2024-03-07T02:53:23;98559.59;;;25.62;22.67
69187;BME280;56301;56.864;60.554;2024-03-07T02:55:46;98563.97;;;25.63;22.29
69187;BME280;56301;56.864;60.554;2024-03-07T02:58:10;98560.44;;;25.62;22.42
69187;BME280;56301;56.864;60.554;2024-03-07T03:00:32;98561.47;;;25.61;22.48
69187;BME280;56301;56.864;60.554;2024-03-07T03:02:55;98561.47;;;25.61;22.18
69187;BME280;56301;56.864;60.554;2024-03-07T03:05:18;98562.69;;;25.59;21.77
69187;BME280;56301;56.864;60.554;2024-03-07T03:07:41;98557.72;;;25.62;21.97
69187;BME280;56301;56.864;60.554;2024-03-07T03:10:03;98565.22;;;25.60;22.49
69187;BME280;56301;56.864;60.554;2024-03-07T03:12:26;98556.06;;;25.61;22.05
69187;BME280;56301;56.864;60.554;2024-03-07T03:14:49;98560.66;;;25.61;21.67
69187;BME280;56301;56.864;60.554;2024-03-07T03:17:11;98560.66;;;25.61;21.70
69187;BME280;56301;56.864;60.554;2024-03-07T03:19:34;98562.53;;;25.60;22.50
69187;BME280;56301;56.864;60.554;2024-03-07T03:21:56;98573.16;;;25.62;22.42
69187;BME280;56301;56.864;60.554;2024-03-07T03:24:19;98564.81;;;25.63;21.79
69187;BME280;56301;56.864;60.554;2024-03-07T03:26:41;98569.59;;;25.61;21.43
69187;BME280;56301;56.864;60.554;2024-03-07T03:29:04;98563.97;;;25.63;22.13
69187;BME280;56301;56.864;60.554;2024-03-07T03:31:26;98565.94;;;25.48;23.54
69187;BME280;56301;56.864;60.554;2024-03-07T03:33:49;98570.25;;;25.42;23.07
69187;BME280;56301;56.864;60.554;2024-03-07T03:36:11;98561.94;;;25.43;22.70
69187;BME280;56301;56.864;60.554;2024-03-07T03:38:34;98570.44;;;25.40;22.72
69187;BME280;56301;56.864;60.554;2024-03-07T03:40:56;98578.31;;;25.35;23.16
69187;BME280;56301;56.864;60.554;2024-03-07T03:43:18;98572.44;;;25.32;22.38
69187;BME280;56301;56.864;60.554;2024-03-07T03:45:41;98568.44;;;25.28;23.33
69187;BME280;56301;56.864;60.554;2024-03-07T03:48:03;98572.38;;;25.25;22.73
69187;BME280;56301;56.864;60.554;2024-03-07T03:50:26;98574.63;;;25.21;22.14
69187;BME280;56301;56.864;60.554;2024-03-07T03:52:48;98574.78;;;25.20;21.53
69187;BME280;56301;56.864;60.554;2024-03-07T03:55:11;98579.38;;;25.19;21.93
69187;BME280;56301;56.864;60.554;2024-03-07T03:57:34;98575.38;;;25.15;22.24
69187;BME280;56301;56.864;60.554;2024-03-07T03:59:56;98562.97;;;25.06;21.85
69187;BME280;56301;56.864;60.554;2024-03-07T04:02:18;98573.72;;;25.14;22.25
69187;BME280;56301;56.864;60.554;2024-03-07T04:04:41;98573.41;;;25.09;22.59
69187;BME280;56301;56.864;60.554;2024-03-07T04:07:03;98575.25;;;25.09;22.48
69187;BME280;56301;56.864;60.554;2024-03-07T04:09:26;98575.47;;;25.07;22.33
69187;BME280;56301;56.864;60.554;2024-03-07T04:11:48;98583.78;;;25.06;22.20
69187;BME280;56301;56.864;60.554;2024-03-07T04:14:10;98582.94;;;25.05;22.35
69187;BME280;56301;56.864;60.554;2024-03-07T04:16:33;98581.63;;;25.01;22.13
69187;BME280;56301;56.864;60.554;2024-03-07T04:18:55;98585.00;;;25.03;22.11
69187;BME280;56301;56.864;60.554;2024-03-07T04:21:18;98591.47;;;25.02;22.05
69187;BME280;56301;56.864;60.554;2024-03-07T04:23:40;98587.03;;;25.01;21.33
69187;BME280;56301;56.864;60.554;2024-03-07T04:26:03;98588.28;;;24.98;21.40
69187;BME280;56301;56.864;60.554;2024-03-07T04:28:25;98590.78;;;25.00;22.03
69187;BME280;56301;56.864;60.554;2024-03-07T04:30:48;98586.41;;;24.99;21.36
69187;BME280;56301;56.864;60.554;2024-03-07T04:33:10;98591.16;;;24.97;21.96
69187;BME280;56301;56.864;60.554;2024-03-07T04:35:32;98585.38;;;25.00;21.75
69187;BME280;56301;56.864;60.554;2024-03-07T04:37:55;98584.09;;;24.96;21.74
69187;BME280;56301;56.864;60.554;2024-03-07T04:40:17;98581.53;;;24.94;21.73
69187;BME280;56301;56.864;60.554;2024-03-07T04:42:43;98588.84;;;24.94;21.79
69187;BME280;56301;56.864;60.554;2024-03-07T04:45:06;98583.25;;;24.95;21.70
69187;BME280;56301;56.864;60.554;2024-03-07T04:47:29;98582.78;;;24.92;21.64
69187;BME280;56301;56.864;60.554;2024-03-07T04:49:51;98585.50;;;24.92;21.39
69187;BME280;56301;56.864;60.554;2024-03-07T04:52:14;98586.50;;;24.91;21.30
69187;BME280;56301;56.864;60.554;2024-03-07T04:54:36;98586.31;;;24.92;21.74
69187;BME280;56301;56.864;60.554;2024-03-07T04:56:59;98581.53;;;24.94;21.34
69187;BME280;56301;56.864;60.554;2024-03-07T04:59:22;98579.88;;;24.93;21.16
69187;BME280;56301;56.864;60.554;2024-03-07T05:01:45;98579.41;;;24.90;21.16
69187;BME280;56301;56.864;60.554;2024-03-07T05:04:08;98581.50;;;24.88;21.59
69187;BME280;56301;56.864;60.554;2024-03-07T05:06:31;98580.44;;;24.89;21.18
69187;BME280;56301;56.864;60.554;2024-03-07T05:08:53;98582.13;;;24.90;21.56
69187;BME280;56301;56.864;60.554;2024-03-07T05:11:16;98576.06;;;24.88;21.16
69187;BME280;56301;56.864;60.554;2024-03-07T05:13:38;98570.66;;;24.88;21.56
69187;BME280;56301;56.864;60.554;2024-03-07T05:16:01;98571.28;;;24.90;20.92
69187;BME280;56301;56.864;60.554;2024-03-07T05:18:24;98577.75;;;24.89;20.88
69187;BME280;56301;56.864;60.554;2024-03-07T05:20:46;98575.03;;;24.89;21.54
69187;BME280;56301;56.864;60.554;2024-03-07T05:23:09;98575.66;;;24.91;21.32
69187;BME280;56301;56.864;60.554;2024-03-07T05:25:31;98576.72;;;24.90;21.51
69187;BME280;56301;56.864;60.554;2024-03-07T05:27:54;98565.88;;;24.90;21.45
69187;BME280;56301;56.864;60.554;2024-03-07T05:30:16;98570.25;;;24.91;20.52
69187;BME280;56301;56.864;60.554;2024-03-07T05:32:39;98561.50;;;24.89;21.36
69187;BME280;56301;56.864;60.554;2024-03-07T05:35:01;98560.47;;;24.90;20.84
69187;BME280;56301;56.864;60.554;2024-03-07T05:37:23;98554.22;;;24.89;21.17
69187;BME280;56301;56.864;60.554;2024-03-07T05:39:46;98558.59;;;24.90;21.03
69187;BME280;56301;56.864;60.554;2024-03-07T05:42:08;98561.13;;;24.92;21.20
69187;BME280;56301;56.864;60.554;2024-03-07T05:44:31;98556.09;;;24.89;21.16
69187;BME280;56301;56.864;60.554;2024-03-07T05:46:53;98555.72;;;24.92;21.26
69187;BME280;56301;56.864;60.554;2024-03-07T05:49:15;98556.56;;;24.92;20.90
69187;BME280;56301;56.864;60.554;2024-03-07T05:51:38;98556.56;;;24.92;20.90
69187;BME280;56301;56.864;60.554;2024-03-07T05:54:00;98548.16;;;25.02;21.11
69187;BME280;56301;56.864;60.554;2024-03-07T05:56:23;98539.88;;;25.25;20.99
69187;BME280;56301;56.864;60.554;2024-03-07T05:58:45;98534.78;;;25.37;20.35
69187;BME280;56301;56.864;60.554;2024-03-07T06:01:08;98535.50;;;25.45;20.18
69187;BME280;56301;56.864;60.554;2024-03-07T06:03:30;98538.91;;;25.54;20.48
69187;BME280;56301;56.864;60.554;2024-03-07T06:05:52;98528.97;;;25.61;19.91
69187;BME280;56301;56.864;60.554;2024-03-07T06:08:15;98531.16;;;25.73;19.80
69187;BME280;56301;56.864;60.554;2024-03-07T06:10:37;98530.75;;;25.76;19.76
69187;BME280;56301;56.864;60.554;2024-03-07T06:13:00;98532.31;;;25.63;20.59
69187;BME280;56301;56.864;60.554;2024-03-07T06:15:22;98528.97;;;25.61;20.81
69187;BME280;56301;56.864;60.554;2024-03-07T06:17:45;98522.81;;;25.74;20.50
69187;BME280;56301;56.864;60.554;2024-03-07T06:20:07;98517.28;;;25.61;20.75
69187;BME280;56301;56.864;60.554;2024-03-07T06:22:30;98512.84;;;25.53;21.67
69187;BME280;56301;56.864;60.554;2024-03-07T06:24:52;98520.13;;;25.53;21.53
69187;BME280;56301;56.864;60.554;2024-03-07T06:27:15;98513.03;;;25.52;21.71
69187;BME280;56301;56.864;60.554;2024-03-07T06:29:37;98516.56;;;25.52;20.28
69187;BME280;56301;56.864;60.554;2024-03-07T06:32:00;98521.00;;;25.53;21.95
69187;BME280;56301;56.864;60.554;2024-03-07T06:34:22;98511.59;;;25.56;22.20
69187;BME280;56301;56.864;60.554;2024-03-07T06:36:45;98513.09;;;25.58;20.83
69187;BME280;56301;56.864;60.554;2024-03-07T06:39:08;98509.34;;;25.59;21.51
69187;BME280;56301;56.864;60.554;2024-03-07T06:41:33;98508.97;;;25.62;20.95
69187;BME280;56301;56.864;60.554;2024-03-07T06:43:56;98506.25;;;25.62;21.48
69187;BME280;56301;56.864;60.554;2024-03-07T06:46:18;98499.63;;;25.65;20.35
69187;BME280;56301;56.864;60.554;2024-03-07T06:48:41;98499.66;;;25.72;20.89
69187;BME280;56301;56.864;60.554;2024-03-07T06:51:04;98517.38;;;25.74;21.11
69187;BME280;56301;56.864;60.554;2024-03-07T06:53:26;98506.00;;;25.79;20.62
69187;BME280;56301;56.864;60.554;2024-03-07T06:55:49;98514.38;;;25.84;21.52
69187;BME280;56301;56.864;60.554;2024-03-07T06:58:12;98517.31;;;25.89;20.23
69187;BME280;56301;56.864;60.554;2024-03-07T07:00:35;98515.06;;;25.92;21.07
69187;BME280;56301;56.864;60.554;2024-03-07T07:02:57;98493.19;;;25.94;20.67
69187;BME280;56301;56.864;60.554;2024-03-07T07:05:21;98489.44;;;25.95;20.73
69187;BME280;56301;56.864;60.554;2024-03-07T07:07:43;98494.47;;;25.98;20.71
69187;BME280;56301;56.864;60.554;2024-03-07T07:10:06;98486.78;;;26.02;20.52
69187;BME280;56301;56.864;60.554;2024-03-07T07:12:29;98499.72;;;26.06;20.73
69187;BME280;56301;56.864;60.554;2024-03-07T07:14:51;98495.38;;;26.12;20.56
69187;BME280;56301;56.864;60.554;2024-03-07T07:17:14;98481.88;;;26.19;20.42
69187;BME280;56301;56.864;60.554;2024-03-07T07:19:36;98488.19;;;26.26;21.11
69187;BME280;56301;56.864;60.554;2024-03-07T07:21:59;98485.69;;;26.31;20.18
69187;BME280;56301;56.864;60.554;2024-03-07T07:24:22;98485.72;;;26.37;20.31
69187;BME280;56301;56.864;60.554;2024-03-07T07:26:44;98489.31;;;26.45;20.51
69187;BME280;56301;56.864;60.554;2024-03-07T07:29:07;98483.72;;;26.53;20.43
69187;BME280;56301;56.864;60.554;2024-03-07T07:31:30;98470.38;;;26.58;20.67
69187;BME280;56301;56.864;60.554;2024-03-07T07:33:52;98474.19;;;26.63;20.34
69187;BME280;56301;56.864;60.554;2024-03-07T07:36:15;98465.63;;;26.67;20.52
69187;BME280;56301;56.864;60.554;2024-03-07T07:38:37;98469.38;;;26.72;20.73
69187;BME280;56301;56.864;60.554;2024-03-07T07:40:59;98471.69;;;26.75;20.35
69187;BME280;56301;56.864;60.554;2024-03-07T07:43:22;98470.06;;;26.81;20.58
69187;BME280;56301;56.864;60.554;2024-03-07T07:45:44;98469.00;;;26.82;20.45
69187;BME280;56301;56.864;60.554;2024-03-07T07:48:07;98474.03;;;26.85;20.82
69187;BME280;56301;56.864;60.554;2024-03-07T07:50:29;98456.28;;;26.89;19.76
69187;BME280;56301;56.864;60.554;2024-03-07T07:52:53;98452.94;;;26.94;19.66
69187;BME280;56301;56.864;60.554;2024-03-07T07:55:16;98462.34;;;26.98;19.55
69187;BME280;56301;56.864;60.554;2024-03-07T07:57:39;98463.44;;;27.03;19.53
69187;BME280;56301;56.864;60.554;2024-03-07T08:00:01;98458.00;;;27.03;20.51
69187;BME280;56301;56.864;60.554;2024-03-07T08:02:24;98455.94;;;27.05;19.68
69187;BME280;56301;56.864;60.554;2024-03-07T08:04:46;98446.31;;;27.09;20.03
69187;BME280;56301;56.864;60.554;2024-03-07T08:07:08;98452.19;;;27.13;19.61
69187;BME280;56301;56.864;60.554;2024-03-07T08:09:31;98447.59;;;27.14;20.06
69187;BME280;56301;56.864;60.554;2024-03-07T08:11:53;98434.44;;;27.17;20.00
69187;BME280;56301;56.864;60.554;2024-03-07T08:14:16;98446.16;;;27.18;20.23
69187;BME280;56301;56.864;60.554;2024-03-07T08:16:38;98439.25;;;27.22;19.83
69187;BME280;56301;56.864;60.554;2024-03-07T08:19:01;98441.56;;;27.25;20.29
69187;BME280;56301;56.864;60.554;2024-03-07T08:21:23;98434.00;;;27.27;19.84
69187;BME280;56301;56.864;60.554;2024-03-07T08:23:45;98442.16;;;27.27;19.90
69187;BME280;56301;56.864;60.554;2024-03-07T08:26:08;98435.91;;;27.26;19.67
69187;BME280;56301;56.864;60.554;2024-03-07T08:28:31;98436.31;;;27.30;20.06
69187;BME280;56301;56.864;60.554;2024-03-07T08:30:53;98440.50;;;27.32;19.74
69187;BME280;56301;56.864;60.554;2024-03-07T08:33:15;98430.06;;;27.29;19.55
69187;BME280;56301;56.864;60.554;2024-03-07T08:35:38;98425.88;;;27.33;19.67
69187;BME280;56301;56.864;60.554;2024-03-07T08:38:00;98425.69;;;27.35;20.15
69187;BME280;56301;56.864;60.554;2024-03-07T08:40:23;98423.16;;;27.40;20.23
69187;BME280;56301;56.864;60.554;2024-03-07T08:42:47;98432.56;;;27.44;19.56
69187;BME280;56301;56.864;60.554;2024-03-07T08:45:09;98420.84;;;27.44;19.68
69187;BME280;56301;56.864;60.554;2024-03-07T08:47:32;98425.47;;;27.43;19.88
69187;BME280;56301;56.864;60.554;2024-03-07T08:49:55;98417.72;;;27.47;20.11
69187;BME280;56301;56.864;60.554;2024-03-07T08:52:17;98412.91;;;27.49;19.67
69187;BME280;56301;56.864;60.554;2024-03-07T08:54:39;98417.50;;;27.48;19.77
69187;BME280;56301;56.864;60.554;2024-03-07T08:57:02;98416.66;;;27.48;19.62
69187;BME280;56301;56.864;60.554;2024-03-07T08:59:24;98421.50;;;27.46;19.81
69187;BME280;56301;56.864;60.554;2024-03-07T09:01:47;98415.22;;;27.45;20.30
69187;BME280;56301;56.864;60.554;2024-03-07T09:04:09;98416.47;;;27.49;19.93
69187;BME280;56301;56.864;60.554;2024-03-07T09:06:32;98412.28;;;27.53;19.75
69187;BME280;56301;56.864;60.554;2024-03-07T09:08:54;98415.00;;;27.53;20.17
69187;BME280;56301;56.864;60.554;2024-03-07T09:11:17;98414.38;;;27.51;20.75
69187;BME280;56301;56.864;60.554;2024-03-07T09:13:39;98412.47;;;27.58;20.40
69187;BME280;56301;56.864;60.554;2024-03-07T09:16:02;98409.75;;;27.58;20.14
69187;BME280;56301;56.864;60.554;2024-03-07T09:18:24;98410.19;;;27.55;19.80
69187;BME280;56301;56.864;60.554;2024-03-07T09:20:47;98410.81;;;27.57;20.84
69187;BME280;56301;56.864;60.554;2024-03-07T09:23:09;98407.88;;;27.59;19.80
69187;BME280;56301;56.864;60.554;2024-03-07T09:25:32;98399.53;;;27.60;19.83
69187;BME280;56301;56.864;60.554;2024-03-07T09:27:54;98403.28;;;27.59;20.64
69187;BME280;56301;56.864;60.554;2024-03-07T09:30:17;98396.41;;;27.64;20.21
69187;BME280;56301;56.864;60.554;2024-03-07T09:32:40;98389.91;;;27.65;20.57
69187;BME280;56301;56.864;60.554;2024-03-07T09:35:02;98387.78;;;27.67;19.96
69187;BME280;56301;56.864;60.554;2024-03-07T09:37:25;98386.97;;;27.66;20.52
69187;BME280;56301;56.864;60.554;2024-03-07T09:39:47;98378.63;;;27.68;20.45
69187;BME280;56301;56.864;60.554;2024-03-07T09:42:10;98379.84;;;27.72;20.04
69187;BME280;56301;56.864;60.554;2024-03-07T09:44:34;98374.84;;;27.69;20.59
69187;BME280;56301;56.864;60.554;2024-03-07T09:46:57;98375.47;;;27.71;20.05
69187;BME280;56301;56.864;60.554;2024-03-07T09:49:22;98371.47;;;27.73;20.33
69187;BME280;56301;56.864;60.554;2024-03-07T09:51:47;98368.16;;;27.71;21.00
69187;BME280;56301;56.864;60.554;2024-03-07T09:54:10;98367.09;;;27.72;19.90
69187;BME280;56301;56.864;60.554;2024-03-07T09:56:32;98359.56;;;27.74;20.65
69187;BME280;56301;56.864;60.554;2024-03-07T09:58:57;98361.03;;;27.77;20.09
69187;BME280;56301;56.864;60.554;2024-03-07T10:01:20;98352.88;;;27.77;20.25
69187;BME280;56301;56.864;60.554;2024-03-07T10:03:43;98360.19;;;27.70;20.63
69187;BME280;56301;56.864;60.554;2024-03-07T10:06:07;98352.28;;;27.75;20.38
69187;BME280;56301;56.864;60.554;2024-03-07T10:08:29;98353.94;;;27.82;20.19
69187;BME280;56301;56.864;60.554;2024-03-07T10:10:53;98356.84;;;27.81;20.88
69187;BME280;56301;56.864;60.554;2024-03-07T10:13:16;98348.09;;;27.79;20.34
69187;BME280;56301;56.864;60.554;2024-03-07T10:15:39;98340.34;;;27.82;20.56
69187;BME280;56301;56.864;60.554;2024-03-07T10:18:01;98354.13;;;27.81;20.88
69187;BME280;56301;56.864;60.554;2024-03-07T10:20:24;98344.53;;;27.78;20.52
69187;BME280;56301;56.864;60.554;2024-03-07T10:22:46;98347.44;;;27.77;20.53
69187;BME280;56301;56.864;60.554;2024-03-07T10:25:09;98350.16;;;27.77;21.31
69187;BME280;56301;56.864;60.554;2024-03-07T10:27:31;98334.69;;;27.77;21.08
69187;BME280;56301;56.864;60.554;2024-03-07T10:29:54;98341.41;;;27.75;20.74
69187;BME280;56301;56.864;60.554;2024-03-07T10:32:19;98341.56;;;27.73;21.13
69187;BME280;56301;56.864;60.554;2024-03-07T10:34:42;98332.59;;;27.73;20.56
69187;BME280;56301;56.864;60.554;2024-03-07T10:37:05;98332.59;;;27.73;20.70
69187;BME280;56301;56.864;60.554;2024-03-07T10:39:27;98330.28;;;27.70;21.47
69187;BME280;56301;56.864;60.554;2024-03-07T10:41:50;98349.31;;;27.63;21.22
69187;BME280;56301;56.864;60.554;2024-03-07T10:44:19;98348.56;;;27.36;21.35
69187;BME280;56301;56.864;60.554;2024-03-07T10:46:43;98352.94;;;27.10;21.52
69187;BME280;56301;56.864;60.554;2024-03-07T10:49:08;98347.06;;;26.94;21.79
69187;BME280;56301;56.864;60.554;2024-03-07T10:51:38;98344.34;;;26.74;22.86
69187;BME280;56301;56.864;60.554;2024-03-07T10:56:38;98349.13;;;26.58;21.34
69187;BME280;56301;56.864;60.554;2024-03-07T10:59:15;98349.53;;;26.49;21.18
69187;BME280;56301;56.864;60.554;2024-03-07T11:01:59;98345.09;;;26.41;20.57
69187;BME280;56301;56.864;60.554;2024-03-07T11:04:22;98350.06;;;26.31;20.23
69187;BME280;56301;56.864;60.554;2024-03-07T11:06:44;98351.28;;;26.22;20.85
69187;BME280;56301;56.864;60.554;2024-03-07T11:09:07;98346.72;;;26.29;20.38
69187;BME280;56301;56.864;60.554;2024-03-07T11:11:30;98340.88;;;26.32;20.53
69187;BME280;56301;56.864;60.554;2024-03-07T11:13:54;98343.81;;;26.30;20.67
69187;BME280;56301;56.864;60.554;2024-03-07T11:16:18;98346.72;;;26.29;21.06
69187;BME280;56301;56.864;60.554;2024-03-07T11:18:40;98342.53;;;26.20;21.22
69187;BME280;56301;56.864;60.554;2024-03-07T11:21:03;98345.63;;;26.10;19.72
69187;BME280;56301;56.864;60.554;2024-03-07T11:23:29;98343.84;;;25.89;20.20
69187;BME280;56301;56.864;60.554;2024-03-07T11:25:53;98335.13;;;25.93;20.32
69187;BME280;56301;56.864;60.554;2024-03-07T11:28:16;98337.66;;;26.02;20.50
69187;BME280;56301;56.864;60.554;2024-03-07T11:30:38;98337.50;;;26.16;20.22
69187;BME280;56301;56.864;60.554;2024-03-07T11:33:01;98326.84;;;26.08;20.12
69187;BME280;56301;56.864;60.554;2024-03-07T11:35:33;98327.00;;;25.93;20.10
69187;BME280;56301;56.864;60.554;2024-03-07T11:37:56;98327.84;;;25.94;19.47
69187;BME280;56301;56.864;60.554;2024-03-07T11:42:43;98319.88;;;25.86;18.93
69187;BME280;56301;56.864;60.554;2024-03-07T11:45:06;98328.13;;;25.71;20.25
69187;BME280;56301;56.864;60.554;2024-03-07T11:47:34;98316.09;;;25.80;19.04
69187;BME280;56301;56.864;60.554;2024-03-07T11:49:57;98315.47;;;25.85;20.38
69187;BME280;56301;56.864;60.554;2024-03-07T11:52:20;98316.34;;;25.92;20.01
69187;BME280;56301;56.864;60.554;2024-03-07T11:54:42;98312.19;;;25.96;20.36
69187;BME280;56301;56.864;60.554;2024-03-07T11:57:06;98314.47;;;25.92;19.41
69187;BME280;56301;56.864;60.554;2024-03-07T11:59:28;98314.03;;;25.82;19.21
69187;BME280;56301;56.864;60.554;2024-03-07T12:01:51;98302.53;;;25.80;19.31
69187;BME280;56301;56.864;60.554;2024-03-07T12:04:13;98306.44;;;25.78;19.41
69187;BME280;56301;56.864;60.554;2024-03-07T12:06:35;98303.59;;;25.79;19.81
69187;BME280;56301;56.864;60.554;2024-03-07T12:08:58;98297.13;;;25.80;19.69
69187;BME280;56301;56.864;60.554;2024-03-07T12:11:20;98292.75;;;25.79;19.27
69187;BME280;56301;56.864;60.554;2024-03-07T12:13:43;98297.06;;;25.74;18.59
69187;BME280;56301;56.864;60.554;2024-03-07T12:16:05;98291.00;;;25.72;19.54
69187;BME280;56301;56.864;60.554;2024-03-07T12:18:28;98289.75;;;25.67;18.82
69187;BME280;56301;56.864;60.554;2024-03-07T12:20:51;98288.44;;;25.57;18.45
69187;BME280;56301;56.864;60.554;2024-03-07T12:23:14;98286.31;;;25.52;19.11
69187;BME280;56301;56.864;60.554;2024-03-07T12:25:38;98291.72;;;25.52;19.57
69187;BME280;56301;56.864;60.554;2024-03-07T12:28:01;98285.13;;;25.61;19.15
69187;BME280;56301;56.864;60.554;2024-03-07T12:30:23;98288.72;;;25.68;19.30
69187;BME280;56301;56.864;60.554;2024-03-07T12:32:49;98286.09;;;25.82;19.42